createdAt,value
2022-11-28T00:01:27.197Z,26.92
2022-11-28T00:03:54.495Z,23.17
2022-11-28T00:06:21.999Z,31.43
2022-11-28T00:08:49.510Z,27.60
2022-11-28T00:11:17.379Z,29.13
2022-11-28T00:13:45.475Z,28.48
2022-11-28T00:16:21.445Z,26.63
2022-11-28T00:18:49.852Z,31.92
2022-11-28T00:21:18.595Z,33.57
2022-11-28T00:23:47.795Z,28.05
2022-11-28T00:26:19.134Z,29.80
2022-11-28T00:28:46.707Z,33.47
2022-11-28T00:31:15.789Z,34.20
2022-11-28T00:33:43.625Z,34.17
2022-11-28T00:36:11.129Z,30.17
2022-11-28T00:38:38.559Z,32.55
2022-11-28T00:41:08.677Z,28.27
2022-11-28T00:43:36.369Z,28.42
2022-11-28T00:46:04.122Z,36.70
2022-11-28T00:48:33.384Z,35.15
2022-11-28T00:51:18.624Z,35.63
2022-11-28T00:53:48.342Z,31.27
2022-11-28T00:56:19.542Z,32.08
2022-11-28T00:58:49.526Z,28.90
2022-11-28T01:01:20.500Z,32.40
2022-11-28T01:03:50.337Z,32.15
2022-11-28T01:06:35.331Z,18.52
2022-11-28T01:09:05.871Z,31.65
2022-11-28T01:11:33.832Z,34.47
2022-11-28T01:14:01.866Z,32.73
2022-11-28T01:16:29.530Z,32.63
2022-11-28T01:18:57.442Z,31.73
2022-11-28T01:21:25.138Z,31.90
2022-11-28T01:23:52.403Z,33.10
2022-11-28T01:26:25.456Z,27.70
2022-11-28T01:28:52.839Z,30.85
2022-11-28T01:31:22.899Z,29.83
2022-11-28T01:33:51.279Z,33.95
2022-11-28T01:36:19.651Z,31.25
2022-11-28T01:38:47.492Z,25.98
2022-11-28T01:41:18.116Z,38.75
2022-11-28T01:44:06.246Z,28.87
2022-11-28T01:46:34.807Z,30.23
2022-11-28T01:49:09.325Z,34.53
2022-11-28T01:51:37.880Z,36.13
2022-11-28T01:54:05.226Z,35.75
2022-11-28T01:56:43.074Z,32.13
2022-11-28T01:59:13.889Z,31.50
2022-11-28T02:01:43.923Z,27.50
2022-11-28T02:04:13.757Z,28.35
2022-11-28T02:06:42.584Z,34.90
2022-11-28T02:09:12.857Z,40.75
2022-11-28T02:11:49.144Z,34.35
2022-11-28T02:14:25.952Z,28.35
2022-11-28T02:17:33.932Z,34.63
2022-11-28T02:20:25.546Z,34.20
2022-11-28T02:23:04.165Z,34.63
2022-11-28T02:25:49.605Z,30.10
2022-11-28T02:28:49.822Z,28.55
2022-11-28T02:31:56.492Z,29.70
2022-11-28T02:34:35.824Z,28.20
2022-11-28T02:37:25.392Z,31.70
2022-11-28T02:40:18.615Z,27.17
2022-11-28T02:43:04.818Z,32.35
2022-11-28T02:45:43.636Z,32.13
2022-11-28T02:48:18.332Z,37.05
2022-11-28T02:50:55.098Z,28.27
2022-11-28T02:53:26.077Z,29.83
2022-11-28T02:55:53.483Z,31.58
2022-11-28T02:58:20.606Z,34.67
2022-11-28T03:00:50.386Z,29.00
2022-11-28T03:03:23.658Z,28.70
2022-11-28T03:06:32.744Z,33.72
2022-11-28T03:09:05.290Z,29.27
2022-11-28T03:11:52.648Z,25.93
2022-11-28T03:14:50.923Z,30.95
2022-11-28T03:17:23.730Z,30.55
2022-11-28T03:20:00.100Z,38.00
2022-11-28T03:22:40.689Z,30.65
2022-11-28T03:25:23.408Z,30.33
2022-11-28T03:28:09.320Z,25.75
2022-11-28T03:30:49.068Z,35.92
2022-11-28T03:33:17.840Z,32.55
2022-11-28T03:35:53.957Z,29.50
2022-11-28T03:38:44.201Z,31.13
2022-11-28T03:41:20.698Z,32.67
2022-11-28T03:43:53.293Z,38.55
2022-11-28T03:46:23.523Z,27.90
2022-11-28T03:48:57.712Z,32.80
2022-11-28T03:51:41.093Z,34.65
2022-11-28T03:54:10.679Z,36.15
2022-11-28T03:56:56.772Z,37.97
2022-11-28T03:59:39.520Z,35.42
2022-11-28T04:02:29.821Z,40.35
2022-11-28T04:05:20.181Z,44.17
2022-11-28T04:08:03.377Z,39.40
2022-11-28T04:10:38.123Z,37.25
2022-11-28T04:13:32.169Z,32.77
2022-11-28T04:16:02.588Z,44.35
2022-11-28T04:18:50.430Z,39.25
2022-11-28T04:21:37.378Z,42.00
2022-11-28T04:24:14.023Z,41.10
2022-11-28T04:26:46.719Z,44.92
2022-11-28T04:29:17.044Z,34.25
2022-11-28T04:31:46.247Z,35.80
2022-11-28T04:34:18.107Z,39.58
2022-11-28T04:36:48.169Z,47.37
2022-11-28T04:39:19.460Z,47.85
2022-11-28T04:42:21.943Z,51.60
2022-11-28T04:45:00.999Z,51.47
2022-11-28T04:47:28.892Z,52.67
2022-11-28T04:49:56.166Z,51.53
2022-11-28T04:52:28.133Z,49.75
2022-11-28T04:55:15.758Z,39.07
2022-11-28T04:57:55.690Z,49.87
2022-11-28T05:00:26.154Z,46.97
2022-11-28T05:02:54.725Z,44.85
2022-11-28T05:05:25.043Z,52.20
2022-11-28T05:07:53.247Z,54.42
2022-11-28T05:10:20.697Z,50.35
2022-11-28T05:12:47.930Z,48.20
2022-11-28T05:15:19.142Z,47.95
2022-11-28T05:17:47.076Z,46.20
2022-11-28T05:20:14.743Z,55.23
2022-11-28T05:22:41.919Z,52.55
2022-11-28T05:25:09.563Z,54.72
2022-11-28T05:27:37.016Z,64.15
2022-11-28T05:30:05.804Z,49.63
2022-11-28T05:32:33.338Z,58.63
2022-11-28T05:35:00.536Z,66.97
2022-11-28T05:37:27.765Z,54.73
2022-11-28T05:39:54.965Z,58.17
2022-11-28T05:42:22.288Z,56.30
2022-11-28T05:44:49.660Z,52.20
2022-11-28T05:47:16.813Z,59.33
2022-11-28T05:49:46.246Z,51.72
2022-11-28T05:52:13.442Z,51.60
2022-11-28T05:54:40.600Z,46.22
2022-11-28T05:57:08.032Z,63.53
2022-11-28T05:59:36.043Z,65.60
2022-11-28T06:02:03.374Z,57.25
2022-11-28T06:04:30.611Z,32.08
2022-11-28T06:06:57.819Z,48.60
2022-11-28T06:09:26.213Z,39.10
2022-11-28T06:11:53.636Z,43.03
2022-11-28T06:14:20.829Z,47.47
2022-11-28T06:16:48.098Z,47.88
2022-11-28T06:19:15.426Z,43.03
2022-11-28T06:21:42.807Z,47.60
2022-11-28T06:24:10.777Z,46.58
2022-11-28T06:26:37.981Z,40.00
2022-11-28T06:29:05.401Z,41.35
2022-11-28T06:31:33.382Z,41.88
2022-11-28T06:34:00.572Z,34.75
2022-11-28T06:36:28.019Z,45.45
2022-11-28T06:38:55.190Z,46.35
2022-11-28T06:41:23.178Z,36.97
2022-11-28T06:43:50.730Z,38.63
2022-11-28T06:46:20.806Z,37.40
2022-11-28T06:48:49.692Z,45.67
2022-11-28T06:51:18.299Z,39.45
2022-11-28T06:53:45.498Z,40.95
2022-11-28T06:56:18.128Z,55.58
2022-11-28T06:58:46.233Z,56.47
2022-11-28T07:01:13.458Z,42.45
2022-11-28T07:03:41.662Z,58.10
2022-11-28T07:06:09.545Z,64.40
2022-11-28T07:08:37.165Z,67.45
2022-11-28T07:11:13.808Z,70.97
2022-11-28T07:13:41.901Z,73.22
2022-11-28T07:16:14.390Z,72.73
2022-11-28T07:18:41.792Z,77.53
2022-11-28T07:21:09.574Z,87.40
2022-11-28T07:23:37.103Z,96.78
2022-11-28T07:26:05.234Z,97.35
2022-11-28T07:28:33.833Z,100.30
2022-11-28T07:31:07.506Z,82.10
2022-11-28T07:33:35.312Z,98.53
2022-11-28T07:36:04.755Z,85.53
2022-11-28T07:38:32.081Z,96.15
2022-11-28T07:41:13.546Z,96.65
2022-11-28T07:43:45.527Z,81.78
2022-11-28T07:46:15.572Z,90.50
2022-11-28T07:48:43.546Z,90.70
2022-11-28T07:51:16.981Z,96.30
2022-11-28T07:53:44.634Z,101.65
2022-11-28T07:56:15.354Z,122.47
2022-11-28T07:58:44.633Z,108.40
2022-11-28T08:01:20.275Z,99.90
2022-11-28T08:03:47.682Z,115.78
2022-11-28T08:06:16.831Z,118.85
2022-11-28T08:08:45.428Z,132.03
2022-11-28T08:11:14.189Z,129.68
2022-11-28T08:13:41.357Z,168.10
2022-11-28T08:16:21.010Z,172.05
2022-11-28T08:18:49.503Z,194.45
2022-11-28T08:21:25.882Z,241.88
2022-11-28T08:23:55.458Z,263.05
2022-11-28T08:26:29.143Z,242.70
2022-11-28T08:29:01.919Z,317.25
2022-11-28T08:31:35.687Z,237.10
2022-11-28T08:34:08.189Z,434.47
2022-11-28T08:36:35.412Z,235.77
2022-11-28T08:41:57.656Z,274.00
2022-11-28T08:44:25.829Z,244.15
2022-11-28T08:46:53.522Z,275.87
2022-11-28T08:49:20.982Z,285.00
2022-11-28T08:51:48.198Z,181.05
2022-11-28T08:54:15.535Z,213.23
2022-11-28T08:56:43.174Z,217.45
2022-11-28T08:59:10.551Z,219.75
2022-11-28T09:01:39.412Z,173.20
2022-11-28T09:04:06.731Z,216.45
2022-11-28T09:06:33.996Z,202.55
2022-11-28T09:09:02.849Z,256.50
2022-11-28T09:11:30.024Z,255.93
2022-11-28T09:13:57.209Z,304.05
2022-11-28T09:16:24.419Z,337.02
2022-11-28T09:18:51.642Z,347.27
2022-11-28T09:21:18.859Z,278.90
2022-11-28T09:23:46.304Z,325.55
2022-11-28T09:26:16.981Z,369.13
2022-11-28T09:28:44.624Z,346.50
2022-11-28T09:31:12.931Z,352.95
2022-11-28T09:33:40.721Z,395.70
2022-11-28T09:36:14.279Z,348.97
2022-11-28T09:38:41.785Z,358.33
2022-11-28T09:41:27.157Z,296.02
2022-11-28T09:44:08.204Z,402.95
2022-11-28T09:46:38.760Z,325.83
2022-11-28T09:49:41.163Z,338.63
2022-11-28T09:52:42.035Z,333.43
2022-11-28T09:55:32.037Z,383.37
2022-11-28T09:58:05.675Z,384.92
2022-11-28T10:00:57.513Z,354.25
2022-11-28T10:03:42.259Z,406.75
2022-11-28T10:06:25.752Z,315.17
2022-11-28T10:09:25.193Z,302.13
2022-11-28T10:12:26.219Z,296.77
2022-11-28T10:15:19.326Z,402.02
2022-11-28T10:18:00.204Z,464.17
2022-11-28T10:20:31.333Z,489.52
2022-11-28T10:23:21.485Z,417.63
2022-11-28T10:25:56.279Z,429.60
2022-11-28T10:28:35.992Z,423.83
2022-11-28T10:31:23.682Z,339.77
2022-11-28T10:34:13.162Z,397.17
2022-11-28T10:36:51.960Z,488.73
2022-11-28T10:39:19.384Z,466.35
2022-11-28T10:42:12.270Z,535.80
2022-11-28T10:45:13.704Z,383.90
2022-11-28T10:47:49.912Z,475.83
2022-11-28T10:50:26.886Z,531.95
2022-11-28T10:53:14.670Z,424.23
2022-11-28T10:56:11.795Z,435.58
2022-11-28T10:58:55.151Z,457.40
2022-11-28T11:01:22.948Z,504.17
2022-11-28T11:03:50.386Z,436.40
2022-11-28T11:06:17.528Z,424.48
2022-11-28T11:08:47.580Z,461.97
2022-11-28T11:11:34.980Z,469.15
2022-11-28T11:14:04.102Z,451.15
2022-11-28T11:17:07.236Z,446.88
2022-11-28T11:19:39.419Z,411.05
2022-11-28T11:22:31.485Z,421.17
2022-11-28T11:25:05.235Z,365.75
2022-11-28T11:27:34.958Z,380.27
2022-11-28T11:30:16.848Z,445.92
2022-11-28T11:32:51.466Z,367.33
2022-11-28T11:35:28.811Z,335.30
2022-11-28T11:38:22.080Z,330.13
2022-11-28T11:40:51.112Z,307.35
2022-11-28T11:43:31.738Z,258.50
2022-11-28T11:46:10.838Z,263.20
2022-11-28T11:48:46.287Z,259.20
2022-11-28T11:51:37.964Z,226.93
2022-11-28T11:54:20.590Z,200.63
2022-11-28T11:57:00.686Z,178.63
2022-11-28T11:59:43.939Z,159.13
2022-11-28T12:02:39.522Z,174.23
2022-11-28T12:05:14.154Z,164.30
2022-11-28T12:08:05.176Z,132.98
2022-11-28T12:10:37.737Z,151.52
2022-11-28T12:13:04.945Z,103.63
2022-11-28T12:15:46.245Z,127.47
2022-11-28T12:18:37.970Z,88.07
2022-11-28T12:21:42.541Z,96.93
2022-11-28T12:24:16.275Z,128.20
2022-11-28T12:26:58.503Z,115.57
2022-11-28T12:29:51.503Z,91.50
2022-11-28T12:32:49.440Z,98.65
2022-11-28T12:35:22.758Z,83.30
2022-11-28T12:38:13.744Z,87.63
2022-11-28T12:41:02.812Z,82.20
2022-11-28T12:43:46.516Z,72.38
2022-11-28T12:46:19.903Z,86.40
2022-11-28T12:49:43.003Z,79.40
2022-11-28T12:52:22.168Z,77.15
2022-11-28T12:54:59.667Z,81.50
2022-11-28T12:57:46.179Z,76.93
2022-11-28T13:00:19.595Z,75.07
2022-11-28T13:03:05.645Z,69.65
2022-11-28T13:05:41.481Z,70.65
2022-11-28T13:08:16.908Z,62.65
2022-11-28T13:11:19.318Z,62.42
2022-11-28T13:13:55.069Z,62.50
2022-11-28T13:16:41.864Z,66.43
2022-11-28T13:19:41.688Z,62.83
2022-11-28T13:22:20.393Z,67.30
2022-11-28T13:24:53.693Z,66.97
2022-11-28T13:27:33.172Z,66.23
2022-11-28T13:30:23.556Z,71.63
2022-11-28T13:32:56.606Z,61.77
2022-11-28T13:35:24.892Z,71.32
2022-11-28T13:40:51.327Z,62.50
2022-11-28T13:43:39.272Z,67.80
2022-11-28T13:46:09.805Z,76.75
2022-11-28T13:51:33.098Z,75.97
2022-11-28T13:54:19.090Z,74.00
2022-11-28T13:56:48.774Z,68.28
2022-11-28T13:59:20.235Z,68.78
2022-11-28T14:01:59.709Z,67.32
2022-11-28T14:04:28.319Z,71.75
2022-11-28T14:07:00.370Z,68.72
2022-11-28T14:09:30.385Z,69.15
2022-11-28T14:12:30.401Z,65.25
2022-11-28T14:15:21.569Z,75.03
2022-11-28T14:18:39.058Z,79.93
2022-11-28T14:21:10.327Z,71.10
2022-11-28T14:24:12.687Z,73.45
2022-11-28T14:26:42.978Z,75.67
2022-11-28T14:29:26.497Z,74.00
2022-11-28T14:32:22.205Z,74.27
2022-11-28T14:34:47.791Z,78.15
2022-11-28T14:37:21.363Z,71.55
2022-11-28T14:39:53.827Z,74.22
2022-11-28T14:42:51.877Z,75.50
2022-11-28T14:45:39.461Z,76.32
2022-11-28T14:48:16.579Z,75.93
2022-11-28T14:50:48.919Z,81.83
2022-11-28T14:53:45.190Z,82.97
2022-11-28T14:56:15.668Z,95.55
2022-11-28T14:58:51.059Z,88.30
2022-11-28T15:01:39.705Z,91.57
2022-11-28T15:04:49.448Z,93.20
2022-11-28T15:07:27.047Z,98.67
2022-11-28T15:10:33.501Z,85.38
2022-11-28T15:13:24.957Z,115.47
2022-11-28T15:15:53.252Z,85.90
2022-11-28T15:18:23.445Z,85.22
2022-11-28T15:21:13.713Z,123.63
2022-11-28T15:23:40.979Z,105.50
2022-11-28T15:26:27.945Z,108.50
2022-11-28T15:29:16.856Z,111.17
2022-11-28T15:31:46.013Z,98.70
2022-11-28T15:34:39.780Z,133.07
2022-11-28T15:37:16.756Z,111.13
2022-11-28T15:39:47.593Z,100.70
2022-11-28T15:42:34.669Z,116.30
2022-11-28T15:45:24.588Z,115.93
2022-11-28T15:47:52.870Z,107.35
2022-11-28T15:50:24.967Z,109.45
2022-11-28T15:52:56.230Z,111.38
2022-11-28T15:55:23.822Z,102.00
2022-11-28T15:57:51.382Z,102.13
2022-11-28T16:00:20.888Z,92.63
2022-11-28T16:02:48.544Z,108.40
2022-11-28T16:05:21.227Z,113.82
2022-11-28T16:07:51.112Z,95.83
2022-11-28T16:10:28.629Z,120.97
2022-11-28T16:13:02.933Z,102.20
2022-11-28T16:15:31.281Z,123.63
2022-11-28T16:17:58.567Z,96.97
2022-11-28T16:20:28.313Z,124.93
2022-11-28T16:23:02.537Z,103.77
2022-11-28T16:25:32.570Z,118.22
2022-11-28T16:28:00.037Z,136.35
2022-11-28T16:30:29.275Z,111.50
2022-11-28T16:32:57.368Z,125.57
2022-11-28T16:35:40.485Z,140.48
2022-11-28T16:38:24.650Z,143.23
2022-11-28T16:40:59.208Z,146.73
2022-11-28T16:43:29.529Z,151.63
2022-11-28T16:45:59.091Z,158.88
2022-11-28T16:48:29.134Z,163.13
2022-11-28T16:51:02.330Z,156.40
2022-11-28T16:53:41.440Z,159.90
2022-11-28T16:56:23.852Z,188.67
2022-11-28T16:58:58.742Z,159.27
2022-11-28T17:01:27.620Z,161.38
2022-11-28T17:03:57.144Z,179.73
2022-11-28T17:06:34.000Z,159.23
2022-11-28T17:09:01.840Z,170.13
2022-11-28T17:11:32.794Z,169.33
2022-11-28T17:14:02.765Z,168.00
2022-11-28T17:16:33.736Z,162.45
2022-11-28T17:19:01.036Z,139.50
2022-11-28T17:21:28.201Z,152.65
2022-11-28T17:23:55.760Z,144.02
2022-11-28T17:26:22.963Z,143.85
2022-11-28T17:28:50.236Z,138.13
2022-11-28T17:31:17.913Z,163.95
2022-11-28T17:33:45.105Z,142.15
2022-11-28T17:36:12.801Z,132.98
2022-11-28T17:38:40.103Z,162.33
2022-11-28T17:41:13.341Z,151.97
2022-11-28T17:43:41.579Z,152.57
2022-11-28T17:46:09.683Z,173.20
2022-11-28T17:48:37.015Z,180.80
2022-11-28T17:51:04.324Z,179.68
2022-11-28T17:53:31.523Z,149.05
2022-11-28T17:55:59.763Z,149.27
2022-11-28T17:58:27.370Z,168.40
2022-11-28T18:01:00.148Z,194.35
2022-11-28T18:03:29.188Z,183.45
2022-11-28T18:05:56.459Z,219.57
2022-11-28T18:08:23.812Z,212.20
2022-11-28T18:11:06.456Z,269.65
2022-11-28T18:13:33.717Z,194.90
2022-11-28T18:16:01.236Z,250.05
2022-11-28T18:18:29.596Z,215.20
2022-11-28T18:20:56.884Z,207.50
2022-11-28T18:23:24.516Z,232.55
2022-11-28T18:25:51.795Z,286.70
2022-11-28T18:28:20.424Z,365.67
2022-11-28T18:30:48.734Z,434.60
2022-11-28T18:33:16.247Z,476.02
2022-11-28T18:35:43.767Z,536.28
2022-11-28T18:38:11.813Z,514.85
2022-11-28T18:40:39.658Z,521.65
2022-11-28T18:43:07.000Z,364.98
2022-11-28T18:45:35.068Z,342.48
2022-11-28T18:48:03.106Z,451.95
2022-11-28T18:50:32.127Z,412.50
2022-11-28T18:53:00.626Z,423.73
2022-11-28T18:55:27.852Z,561.28
2022-11-28T18:57:55.030Z,382.37
2022-11-28T19:00:22.656Z,262.57
2022-11-28T19:02:51.971Z,243.07
2022-11-28T19:05:19.157Z,249.23
2022-11-28T19:07:46.659Z,400.60
2022-11-28T19:10:14.230Z,434.27
2022-11-28T19:12:41.958Z,466.20
2022-11-28T19:15:11.593Z,507.38
2022-11-28T19:17:38.849Z,342.33
2022-11-28T19:20:06.735Z,358.13
2022-11-28T19:22:35.923Z,514.47
2022-11-28T19:25:03.598Z,360.33
2022-11-28T19:27:30.732Z,407.00
2022-11-28T19:29:58.220Z,405.17
2022-11-28T19:32:25.567Z,449.08
2022-11-28T19:34:54.015Z,395.23
2022-11-28T19:37:21.156Z,437.95
2022-11-28T19:39:48.409Z,492.70
2022-11-28T19:42:16.275Z,481.85
2022-11-28T19:44:43.834Z,311.50
2022-11-28T19:47:11.047Z,365.15
2022-11-28T19:49:38.425Z,471.92
2022-11-28T19:52:06.174Z,306.15
2022-11-28T19:54:34.027Z,356.50
2022-11-28T19:57:02.301Z,365.60
2022-11-28T19:59:31.210Z,319.27
2022-11-28T20:01:58.811Z,404.33
2022-11-28T20:04:26.254Z,360.67
2022-11-28T20:06:53.640Z,329.00
2022-11-28T20:09:20.914Z,290.97
2022-11-28T20:11:48.534Z,359.20
2022-11-28T20:14:20.083Z,385.88
2022-11-28T20:16:47.792Z,426.98
2022-11-28T20:19:17.676Z,453.53
2022-11-28T20:21:47.282Z,414.73
2022-11-28T20:24:15.594Z,360.15
2022-11-28T20:26:44.085Z,424.38
2022-11-28T20:29:17.268Z,436.20
2022-11-28T20:31:47.476Z,406.25
2022-11-28T20:34:18.944Z,515.78
2022-11-28T20:36:53.572Z,383.55
2022-11-28T20:39:21.215Z,502.83
2022-11-28T20:41:48.520Z,492.13
2022-11-28T20:44:17.431Z,507.45
2022-11-28T20:46:46.233Z,387.13
2022-11-28T20:49:15.249Z,443.92
2022-11-28T20:51:42.807Z,464.83
2022-11-28T20:54:12.320Z,488.58
2022-11-28T20:57:12.740Z,469.27
2022-11-28T20:59:27.877Z,495.55
2022-11-28T21:01:55.084Z,499.70
2022-11-28T21:04:22.289Z,592.42
2022-11-28T21:06:49.557Z,505.02
2022-11-28T21:09:19.980Z,554.80
2022-11-28T21:11:58.133Z,592.65
2022-11-28T21:14:27.495Z,584.75
2022-11-28T21:16:55.039Z,493.58
2022-11-28T21:19:22.479Z,500.05
2022-11-28T21:21:49.693Z,576.55
2022-11-28T21:24:17.064Z,573.95
2022-11-28T21:26:49.635Z,624.75
2022-11-28T21:29:18.445Z,579.40
2022-11-28T21:31:46.550Z,676.70
2022-11-28T21:34:15.259Z,679.83
2022-11-28T21:36:43.100Z,569.13
2022-11-28T21:39:15.793Z,555.63
2022-11-28T21:41:43.331Z,512.33
2022-11-28T21:44:10.595Z,593.47
2022-11-28T21:46:38.474Z,681.30
2022-11-28T21:49:06.025Z,668.28
2022-11-28T21:51:37.936Z,754.97
2022-11-28T21:54:05.144Z,646.72
2022-11-28T21:56:32.444Z,796.25
2022-11-28T21:58:59.586Z,739.90
2022-11-28T22:01:26.866Z,729.13
2022-11-28T22:03:59.061Z,760.17
2022-11-28T22:06:29.842Z,824.47
2022-11-28T22:08:57.787Z,760.85
2022-11-28T22:11:25.412Z,679.70
2022-11-28T22:13:52.931Z,683.03
2022-11-28T22:16:26.304Z,673.00
2022-11-28T22:18:55.553Z,796.63
2022-11-28T22:24:11.035Z,807.17
2022-11-28T22:26:38.554Z,708.57
2022-11-28T22:29:05.765Z,855.47
2022-11-28T22:31:33.213Z,739.20
2022-11-28T22:34:00.514Z,683.67
2022-11-28T22:36:28.535Z,578.58
2022-11-28T22:38:57.607Z,560.50
2022-11-28T22:41:29.382Z,540.35
2022-11-28T22:44:00.987Z,515.20
2022-11-28T22:46:30.913Z,384.42
2022-11-28T22:49:03.133Z,383.85
2022-11-28T22:51:31.218Z,341.07
2022-11-28T22:54:01.892Z,277.75
2022-11-28T22:56:32.670Z,265.10
2022-11-28T22:59:00.814Z,258.27
2022-11-28T23:01:30.411Z,257.98
2022-11-28T23:03:59.261Z,271.38
2022-11-28T23:06:29.952Z,289.38
2022-11-28T23:08:58.641Z,288.27
2022-11-28T23:11:29.437Z,304.95
2022-11-28T23:13:56.761Z,291.33
2022-11-28T23:16:29.781Z,278.70
2022-11-28T23:18:59.643Z,283.55
2022-11-28T23:21:30.835Z,272.87
2022-11-28T23:23:58.464Z,308.70
2022-11-28T23:26:28.527Z,265.42
2022-11-28T23:28:58.649Z,264.05
2022-11-28T23:31:30.402Z,283.60
2022-11-28T23:33:58.645Z,266.03
2022-11-28T23:36:28.785Z,240.90
2022-11-28T23:39:07.696Z,263.38
2022-11-28T23:41:34.863Z,255.03
2022-11-28T23:44:02.075Z,228.87
2022-11-28T23:46:29.527Z,264.40
2022-11-28T23:48:56.924Z,257.87
2022-11-28T23:51:26.043Z,280.00
2022-11-28T23:53:53.820Z,275.67
2022-11-28T23:56:24.048Z,279.35
2022-11-28T23:58:52.164Z,283.63
